Terminal Aerodrome Forecast
Issued by NWS

Home | Current Version | Previous Version | Text Only | Print | Product List | Glossary On
Versions: 1 2 3 4 5 6 7 8 9 10 11 12 13
000
FTUS46 KSEW 210528
TAFCLM
TAF
KCLM 210528Z 2106/2206 23005KT P6SM SCT250
     FM211000 VRB03KT P6SM OVC100
     FM211400 00000KT 4SM -RA BR OVC025
     FM211800 10004KT 2SM RA BR SCT007 OVC015
     FM220100 27003KT 6SM -SHRA SCT015 BKN025=

USA.gov is the U.S. government's official web portal to all federal, state and local government web resources and services.